Robertson, Iowa
Current Conditions -  °F | °C
As of 9:15 AM on Monday 24 Nov 2014 (Local Time) from KIFA Reporting Station
Overcast Overcast  
Wind Chill:   Ceiling: 1300
Heat Index: 23°   Visibility: 7mi
Dew Point: 19°   Wind: 28mph
Humidity: 84%   Direction: 300°WNW
Pressure: 29.48"   Gusts: 33mph
Location:  42.5577°N, 93.0852°W
Report Text: KIFA 241515Z AUTO 30024G29KT 7SM OVC013 M05/M07 A2948 RMK AO2 T10521075
Loading
Personal Weather Stations






























Interactive Weather Map New forecast layout! Learn more

10-Day Weather Forecast

Advertisements
Track Severe Weather on mobile